Time;durP1;ratioP1;P1;durP2;ratioP2;P2;SDS_P1;SDS_P2;PMS_P1;PMS_P2;Temp;Humidity;BMP_temperature;BMP_pressure;BME280_temperature;BME280_humidity;BME280_pressure;Samples;Min_cycle;Max_cycle;Signal;HPM_P1;HPM_P2
2021/03/17 00:00:42;;;;;;;13.03;10.37;;;5.90;99.90;;;;;;5091828;28;20917;-64
2021/03/17 00:03:09;;;;;;;13.27;8.50;;;5.80;99.90;;;;;;5091518;28;20500;-64
2021/03/17 00:05:38;;;;;;;11.47;8.57;;;5.80;99.90;;;;;;5091780;28;20442;-62
2021/03/17 00:08:05;;;;;;;10.10;8.20;;;5.80;99.90;;;;;;5091644;28;20438;-65
2021/03/17 00:10:34;;;;;;;12.43;8.67;;;5.70;99.90;;;;;;5091653;28;20450;-64
2021/03/17 00:13:02;;;;;;;10.00;7.30;;;5.70;99.90;;;;;;5091418;28;20819;-64
2021/03/17 00:15:30;;;;;;;9.90;6.50;;;5.60;99.90;;;;;;5091709;28;20442;-63
2021/03/17 00:17:56;;;;;;;9.70;8.23;;;5.70;99.90;;;;;;5091515;28;20990;-65
2021/03/17 00:20:24;;;;;;;12.50;8.10;;;5.60;99.90;;;;;;5091586;28;20445;-64
2021/03/17 00:22:52;;;;;;;7.50;6.73;;;5.60;99.90;;;;;;5091303;28;20442;-64
2021/03/17 00:25:19;;;;;;;9.93;8.23;;;5.70;99.90;;;;;;5091491;28;20492;-64
2021/03/17 00:27:46;;;;;;;8.83;7.93;;;5.70;99.90;;;;;;5091371;28;20469;-64
2021/03/17 00:30:13;;;;;;;9.00;8.20;;;5.80;99.90;;;;;;5091312;28;20504;-64
2021/03/17 00:32:39;;;;;;;8.60;7.80;;;5.70;99.90;;;;;;5091208;28;20438;-64
2021/03/17 00:35:07;;;;;;;9.47;8.57;;;5.80;99.90;;;;;;5091281;28;20924;-64
2021/03/17 00:37:33;;;;;;;10.63;8.07;;;5.70;99.90;;;;;;5091213;28;20474;-64
2021/03/17 00:40:00;;;;;;;9.63;8.17;;;5.70;99.90;;;;;;5091242;28;20435;-65
2021/03/17 00:42:27;;;;;;;9.10;8.10;;;5.80;99.90;;;;;;5091354;28;20442;-65
2021/03/17 00:44:53;;;;;;;9.17;8.30;;;5.80;99.90;;;;;;5091099;28;20446;-64
2021/03/17 00:47:19;;;;;;;8.93;6.63;;;5.80;99.90;;;;;;5094659;28;20462;-63
2021/03/17 00:49:45;;;;;;;6.70;5.80;;;5.70;99.90;;;;;;5095276;28;20485;-64
2021/03/17 00:52:11;;;;;;;6.77;6.10;;;5.70;99.90;;;;;;5095345;28;20439;-64
2021/03/17 00:54:37;;;;;;;6.67;6.07;;;5.70;99.90;;;;;;5095076;28;20434;-63
2021/03/17 00:57:05;;;;;;;8.07;5.80;;;5.70;99.90;;;;;;5095059;28;20462;-63
2021/03/17 00:59:31;;;;;;;6.80;5.50;;;5.60;99.90;;;;;;5095182;28;20442;-64
2021/03/17 01:01:57;;;;;;;6.10;5.50;;;5.60;99.90;;;;;;5095186;28;20803;-65
2021/03/17 01:04:24;;;;;;;6.10;5.50;;;5.60;99.90;;;;;;5094944;28;20493;-64
2021/03/17 01:06:50;;;;;;;6.73;5.97;;;5.60;99.90;;;;;;5094956;28;20473;-64
2021/03/17 01:09:16;;;;;;;9.70;5.90;;;5.60;99.90;;;;;;5094897;28;20474;-64
2021/03/17 01:11:43;;;;;;;15.53;6.87;;;5.60;99.90;;;;;;5094895;28;20465;-64
2021/03/17 01:14:11;;;;;;;6.33;5.73;;;5.60;99.90;;;;;;5094855;28;20450;-64
2021/03/17 01:16:37;;;;;;;9.03;8.23;;;5.60;99.90;;;;;;5094948;28;20462;-65
2021/03/17 01:19:03;;;;;;;7.67;6.60;;;5.70;99.90;;;;;;5094960;28;20442;-63
2021/03/17 01:21:30;;;;;;;6.70;6.07;;;5.70;99.90;;;;;;5094956;28;20495;-64
2021/03/17 01:23:56;;;;;;;10.00;7.03;;;5.60;99.90;;;;;;5094671;28;20450;-64
2021/03/17 01:26:22;;;;;;;8.23;7.47;;;5.60;99.90;;;;;;5094608;28;20458;-63
2021/03/17 01:28:48;;;;;;;7.30;6.57;;;5.60;99.90;;;;;;5094699;28;20477;-64
2021/03/17 01:31:15;;;;;;;9.00;8.10;;;5.60;99.90;;;;;;5094567;28;20434;-63
2021/03/17 01:33:42;;;;;;;8.70;7.90;;;5.60;99.90;;;;;;5094286;28;20442;-64
2021/03/17 01:36:08;;;;;;;10.33;7.80;;;5.70;99.90;;;;;;5094421;28;20834;-64
2021/03/17 01:38:35;;;;;;;10.60;8.70;;;5.70;99.90;;;;;;5094512;28;20488;-64
2021/03/17 01:41:01;;;;;;;10.70;9.33;;;5.70;99.90;;;;;;5094424;28;20453;-64
2021/03/17 01:43:27;;;;;;;10.40;8.80;;;5.60;99.90;;;;;;5094233;28;20442;-64
2021/03/17 01:45:53;;;;;;;11.50;10.37;;;5.60;99.90;;;;;;5094270;28;20439;-64
2021/03/17 01:48:21;;;;;;;10.67;9.67;;;5.60;99.90;;;;;;5094131;28;20438;-64
2021/03/17 01:50:49;;;;;;;10.67;9.67;;;5.60;99.90;;;;;;5093989;28;20801;-65
2021/03/17 01:53:18;;;;;;;9.53;8.53;;;5.60;99.90;;;;;;5093986;28;20464;-64
2021/03/17 01:55:45;;;;;;;12.90;9.93;;;5.60;99.90;;;;;;5094160;28;20449;-62
2021/03/17 01:58:12;;;;;;;10.13;9.03;;;5.60;99.90;;;;;;5093756;28;20480;-64
2021/03/17 02:00:40;;;;;;;11.20;10.00;;;5.60;99.90;;;;;;5094178;28;20441;-63
2021/03/17 02:03:07;;;;;;;10.80;8.93;;;5.50;99.90;;;;;;5093922;28;20439;-63
2021/03/17 02:05:38;;;;;;;12.50;11.30;;;5.60;99.90;;;;;;5094107;28;20807;-64
2021/03/17 02:08:06;;;;;;;10.93;9.83;;;5.60;99.90;;;;;;5094040;28;20443;-64
2021/03/17 02:10:34;;;;;;;11.13;9.33;;;5.60;99.90;;;;;;5093839;28;20478;-63
2021/03/17 02:13:12;;;;;;;11.23;10.17;;;5.50;99.90;;;;;;5093660;28;20438;-64
2021/03/17 02:15:59;;;;;;;9.93;8.93;;;5.40;99.90;;;;;;5093847;28;20442;-64
2021/03/17 02:18:34;;;;;;;9.73;8.73;;;5.40;99.90;;;;;;5093531;28;20930;-63
2021/03/17 02:21:14;;;;;;;10.83;8.80;;;5.40;99.90;;;;;;5093789;28;20442;-63
2021/03/17 02:23:50;;;;;;;11.97;9.40;;;5.30;99.90;;;;;;5093382;28;20442;-64
2021/03/17 02:26:48;;;;;;;12.33;10.03;;;5.30;99.90;;;;;;5093383;28;20462;-64
2021/03/17 02:29:54;;;;;;;12.93;11.50;;;5.30;99.90;;;;;;5093351;28;20559;-64
2021/03/17 02:32:44;;;;;;;17.20;12.73;;;5.20;99.90;;;;;;5093516;28;20442;-64
2021/03/17 02:35:12;;;;;;;15.97;13.17;;;5.20;99.90;;;;;;5093383;28;20445;-64
2021/03/17 02:37:41;;;;;;;18.27;13.33;;;5.20;99.90;;;;;;5093048;28;20503;-63
2021/03/17 02:40:11;;;;;;;14.07;12.30;;;5.10;99.90;;;;;;5093313;28;20500;-63
2021/03/17 02:42:41;;;;;;;15.30;12.87;;;5.10;99.90;;;;;;5092969;28;20438;-64
2021/03/17 02:45:09;;;;;;;14.10;10.23;;;5.10;99.90;;;;;;5092564;28;20948;-63
2021/03/17 02:47:43;;;;;;;11.57;10.30;;;5.10;99.90;;;;;;5093098;28;20474;-63
2021/03/17 02:50:13;;;;;;;15.00;11.63;;;5.00;99.90;;;;;;5093069;28;20474;-64
2021/03/17 02:52:44;;;;;;;19.00;14.30;;;5.00;99.90;;;;;;5093118;28;20847;-62
2021/03/17 02:55:12;;;;;;;16.20;14.10;;;5.00;99.90;;;;;;5092890;28;20806;-64
2021/03/17 02:57:42;;;;;;;13.20;11.80;;;5.00;99.90;;;;;;5092698;28;20474;-63
2021/03/17 03:00:11;;;;;;;11.80;10.43;;;4.90;99.90;;;;;;5092932;28;20952;-62
2021/03/17 03:02:39;;;;;;;14.13;10.63;;;4.90;99.90;;;;;;5092707;28;20496;-64
2021/03/17 03:05:09;;;;;;;11.73;9.73;;;4.90;99.90;;;;;;5092680;28;20504;-64
2021/03/17 03:07:37;;;;;;;11.20;8.80;;;4.80;99.90;;;;;;5092510;28;20462;-62
2021/03/17 03:10:09;;;;;;;10.63;9.63;;;4.80;99.90;;;;;;5091850;28;20481;-64
2021/03/17 03:12:36;;;;;;;11.70;10.37;;;4.80;99.90;;;;;;5092520;28;20438;-64
2021/03/17 03:15:04;;;;;;;11.43;10.10;;;4.80;99.90;;;;;;5092457;28;20446;-64
2021/03/17 03:17:33;;;;;;;14.20;11.37;;;4.80;99.90;;;;;;5092402;28;20470;-64
2021/03/17 03:20:01;;;;;;;15.70;10.43;;;4.80;99.90;;;;;;5092431;28;20431;-64
2021/03/17 03:22:29;;;;;;;16.60;12.00;;;4.80;99.90;;;;;;5092546;28;20438;-64
2021/03/17 03:24:57;;;;;;;15.10;12.90;;;4.80;99.90;;;;;;5092175;28;20504;-64
2021/03/17 03:27:25;;;;;;;13.80;12.30;;;4.80;99.90;;;;;;5092171;28;20496;-64
2021/03/17 03:29:52;;;;;;;16.47;12.67;;;4.80;99.90;;;;;;5092249;28;20539;-64
2021/03/17 03:32:19;;;;;;;16.10;13.17;;;4.80;99.90;;;;;;5092221;28;20449;-64
2021/03/17 03:34:45;;;;;;;12.80;11.00;;;4.70;99.90;;;;;;5092025;28;20442;-64
2021/03/17 03:37:13;;;;;;;12.97;10.47;;;4.70;99.90;;;;;;5092084;28;20474;-64
2021/03/17 03:39:40;;;;;;;10.30;9.07;;;4.70;99.90;;;;;;5092094;28;20461;-64
2021/03/17 03:42:08;;;;;;;11.73;10.53;;;4.60;99.90;;;;;;5092182;28;20438;-64
2021/03/17 03:44:36;;;;;;;10.20;9.03;;;4.60;99.90;;;;;;5091829;28;20920;-64
2021/03/17 03:47:02;;;;;;;8.90;7.70;;;4.50;99.90;;;;;;5091967;28;20462;-64
2021/03/17 03:49:28;;;;;;;9.90;8.93;;;4.50;99.90;;;;;;5091806;28;20470;-64
2021/03/17 03:52:00;;;;;;;8.47;7.77;;;4.50;99.90;;;;;;5091928;28;20446;-65
2021/03/17 03:54:37;;;;;;;10.43;9.17;;;4.40;99.90;;;;;;5091776;28;20438;-65
2021/03/17 03:57:13;;;;;;;10.63;9.53;;;4.40;99.90;;;;;;5090478;28;20473;-65
2021/03/17 03:59:42;;;;;;;10.20;7.73;;;4.40;99.90;;;;;;5091949;28;20433;-65
2021/03/17 04:02:12;;;;;;;10.33;9.13;;;4.40;99.90;;;;;;5091907;28;20442;-64
2021/03/17 04:04:43;;;;;;;7.47;6.77;;;4.40;99.90;;;;;;5091454;28;20443;-65
2021/03/17 04:07:10;;;;;;;11.50;8.30;;;4.30;99.90;;;;;;5091638;28;20465;-65
2021/03/17 04:09:44;;;;;;;10.23;9.07;;;4.30;99.90;;;;;;5091427;28;20470;-65
2021/03/17 04:12:12;;;;;;;10.13;8.43;;;4.40;99.90;;;;;;5091622;28;20450;-64
2021/03/17 04:14:41;;;;;;;12.33;10.00;;;4.30;99.90;;;;;;5091283;28;20472;-65
2021/03/17 04:17:12;;;;;;;14.53;12.93;;;4.30;99.90;;;;;;5091566;28;20962;-64
2021/03/17 04:19:41;;;;;;;15.13;12.20;;;4.30;99.90;;;;;;5091343;28;21065;-65
2021/03/17 04:22:09;;;;;;;16.30;14.60;;;4.40;99.90;;;;;;5091535;28;20546;-65
2021/03/17 04:24:38;;;;;;;14.73;12.50;;;4.40;99.90;;;;;;5091152;28;20446;-65
2021/03/17 04:27:06;;;;;;;14.90;11.10;;;4.40;99.90;;;;;;5091498;28;20462;-64
2021/03/17 04:29:35;;;;;;;12.07;9.83;;;4.40;99.90;;;;;;5091331;28;20998;-64
2021/03/17 04:32:02;;;;;;;9.63;8.73;;;4.40;99.90;;;;;;5091368;28;20442;-64
2021/03/17 04:34:31;;;;;;;9.27;8.10;;;4.40;99.90;;;;;;5091202;28;20438;-64
2021/03/17 04:36:58;;;;;;;8.13;7.43;;;4.30;99.90;;;;;;5091132;28;20988;-65
2021/03/17 04:39:25;;;;;;;8.43;7.63;;;4.30;99.90;;;;;;5091328;28;20435;-64
2021/03/17 04:41:54;;;;;;;6.83;6.23;;;4.30;99.90;;;;;;5091232;28;20450;-65
2021/03/17 04:44:21;;;;;;;7.63;6.80;;;4.20;99.90;;;;;;5091165;28;20442;-63
2021/03/17 04:46:49;;;;;;;5.97;5.37;;;4.20;99.90;;;;;;5091222;28;20851;-64
2021/03/17 04:49:18;;;;;;;5.30;4.90;;;4.20;99.90;;;;;;5091564;28;20991;-64
2021/03/17 04:51:46;;;;;;;4.57;4.17;;;4.20;99.90;;;;;;5091216;28;20434;-64
2021/03/17 04:54:12;;;;;;;6.57;6.03;;;4.20;99.90;;;;;;5091173;28;20449;-64
2021/03/17 04:56:41;;;;;;;5.73;5.23;;;4.20;99.90;;;;;;5090851;28;20458;-64
2021/03/17 04:59:08;;;;;;;7.40;6.80;;;4.10;99.90;;;;;;5091265;28;20445;-64
2021/03/17 05:01:36;;;;;;;8.30;7.27;;;4.10;99.90;;;;;;5091230;28;20496;-64
2021/03/17 05:04:04;;;;;;;7.10;6.50;;;4.10;99.90;;;;;;5090729;28;20434;-64
2021/03/17 05:06:31;;;;;;;9.10;7.17;;;4.10;99.90;;;;;;5090950;28;20520;-64
2021/03/17 05:08:59;;;;;;;8.27;7.47;;;4.10;99.90;;;;;;5090956;28;20886;-64
2021/03/17 05:11:25;;;;;;;8.57;7.77;;;4.10;99.90;;;;;;5090947;28;20452;-64
2021/03/17 05:13:52;;;;;;;7.60;6.90;;;4.20;99.90;;;;;;5090956;28;20443;-64
2021/03/17 05:16:20;;;;;;;8.07;7.30;;;4.10;99.90;;;;;;5091020;28;20516;-64
2021/03/17 05:18:48;;;;;;;9.07;8.13;;;4.10;99.90;;;;;;5090992;28;20442;-64
2021/03/17 05:21:16;;;;;;;8.83;7.63;;;4.10;99.90;;;;;;5090979;28;20465;-64
2021/03/17 05:23:43;;;;;;;9.33;8.43;;;4.10;99.90;;;;;;5090733;28;20446;-64
2021/03/17 05:26:10;;;;;;;9.47;8.57;;;4.10;99.90;;;;;;5090820;28;20458;-64
2021/03/17 05:28:39;;;;;;;8.70;7.90;;;4.10;99.90;;;;;;5090819;28;20991;-64
2021/03/17 05:31:06;;;;;;;10.53;9.30;;;4.10;99.90;;;;;;5090779;28;20446;-64
2021/03/17 05:33:34;;;;;;;12.77;10.30;;;4.10;99.90;;;;;;5094051;28;20978;-64
2021/03/17 05:36:00;;;;;;;12.87;11.17;;;4.10;99.90;;;;;;5094376;28;20470;-64
2021/03/17 05:38:27;;;;;;;10.63;9.63;;;4.10;99.90;;;;;;5094478;28;20453;-64
2021/03/17 05:40:55;;;;;;;10.30;8.87;;;4.20;99.90;;;;;;5094407;28;20438;-64
2021/03/17 05:43:22;;;;;;;11.13;9.83;;;4.20;99.90;;;;;;5094056;28;20442;-64
2021/03/17 05:45:51;;;;;;;10.90;9.80;;;4.20;99.90;;;;;;5094231;28;20442;-64
2021/03/17 05:48:19;;;;;;;10.30;9.20;;;4.20;99.90;;;;;;5094260;28;20856;-64
2021/03/17 05:50:48;;;;;;;10.83;9.83;;;4.20;99.90;;;;;;5094169;28;20527;-63
2021/03/17 05:53:15;;;;;;;9.87;7.90;;;4.20;99.90;;;;;;5093919;28;20434;-64
2021/03/17 05:55:43;;;;;;;10.57;9.10;;;4.30;99.90;;;;;;5093823;28;20491;-64
2021/03/17 05:58:12;;;;;;;8.80;7.90;;;4.30;99.90;;;;;;5094248;28;20928;-63
2021/03/17 06:00:38;;;;;;;11.60;9.10;;;4.30;99.90;;;;;;5093985;28;20434;-64
2021/03/17 06:03:05;;;;;;;12.23;9.23;;;4.30;99.90;;;;;;5093723;28;20951;-64
2021/03/17 06:05:32;;;;;;;11.47;8.40;;;4.40;99.90;;;;;;5093748;28;20435;-64
2021/03/17 06:08:05;;;;;;;8.80;7.83;;;4.40;99.90;;;;;;5093715;28;20462;-64
2021/03/17 06:10:32;;;;;;;11.87;9.63;;;4.40;99.90;;;;;;5093713;28;20474;-65
2021/03/17 06:13:01;;;;;;;10.97;9.50;;;4.40;99.90;;;;;;5093265;28;20445;-66
2021/03/17 06:15:28;;;;;;;11.00;9.60;;;4.40;99.90;;;;;;5093210;28;20445;-65
2021/03/17 06:17:58;;;;;;;8.33;7.53;;;4.50;99.90;;;;;;5091621;28;20462;-65
2021/03/17 06:20:25;;;;;;;10.13;9.20;;;4.50;99.90;;;;;;5092442;28;20430;-65
2021/03/17 06:22:51;;;;;;;12.93;10.37;;;4.50;99.90;;;;;;5092131;28;20671;-65
2021/03/17 06:25:19;;;;;;;11.27;9.47;;;4.50;99.90;;;;;;5092331;28;20453;-65
2021/03/17 06:27:46;;;;;;;10.07;9.07;;;4.60;99.90;;;;;;5092025;28;20991;-65
2021/03/17 06:30:14;;;;;;;10.60;9.50;;;4.60;99.90;;;;;;5092145;28;20474;-65
2021/03/17 06:32:43;;;;;;;10.43;9.40;;;4.60;99.90;;;;;;5092140;28;20465;-65
2021/03/17 06:35:16;;;;;;;9.83;7.47;;;4.70;99.90;;;;;;5092944;28;20516;-64
2021/03/17 06:37:43;;;;;;;8.77;7.87;;;4.70;99.90;;;;;;5092832;28;20474;-65
2021/03/17 06:40:22;;;;;;;11.90;9.23;;;4.70;99.90;;;;;;5093018;28;20438;-66
2021/03/17 06:42:49;;;;;;;10.13;8.73;;;4.70;99.90;;;;;;5092650;28;20438;-66
2021/03/17 06:45:28;;;;;;;8.73;7.83;;;4.70;99.90;;;;;;5092853;28;20445;-65
2021/03/17 06:47:55;;;;;;;13.00;10.60;;;4.70;99.90;;;;;;5092672;28;20493;-65
2021/03/17 06:50:28;;;;;;;13.00;10.47;;;4.70;99.90;;;;;;5092611;28;20475;-67
2021/03/17 06:52:55;;;;;;;9.90;8.60;;;4.70;99.90;;;;;;5092568;28;20446;-68
2021/03/17 06:55:22;;;;;;;13.47;11.57;;;4.70;99.90;;;;;;5092809;28;20503;-65
2021/03/17 06:57:53;;;;;;;10.87;9.77;;;4.70;99.90;;;;;;5094844;28;20462;-65
2021/03/17 07:00:30;;;;;;;10.40;7.97;;;4.70;99.90;;;;;;5096311;28;20450;-67
2021/03/17 07:02:58;;;;;;;9.73;8.73;;;4.70;99.90;;;;;;5092413;28;20446;-67
2021/03/17 07:05:39;;;;;;;11.47;9.93;;;4.70;99.90;;;;;;5092396;28;20442;-66
2021/03/17 07:08:07;;;;;;;9.50;8.03;;;4.70;99.90;;;;;;5092591;28;20446;-67
2021/03/17 07:10:37;;;;;;;10.20;9.20;;;4.70;99.90;;;;;;5092258;28;20478;-67
2021/03/17 07:13:05;;;;;;;12.43;10.70;;;4.70;99.90;;;;;;5092227;28;20518;-66
2021/03/17 07:15:33;;;;;;;14.10;11.40;;;4.70;99.90;;;;;;5092387;28;20492;-66
2021/03/17 07:18:13;;;;;;;13.17;11.30;;;4.80;99.90;;;;;;5092269;28;20462;-66
2021/03/17 07:20:42;;;;;;;12.20;10.70;;;4.80;99.90;;;;;;5092236;28;20446;-66
2021/03/17 07:23:30;;;;;;;15.50;13.70;;;4.80;99.90;;;;;;5092116;28;20472;-67
2021/03/17 07:26:08;;;;;;;16.33;12.53;;;4.80;99.90;;;;;;5092120;28;20569;-66
2021/03/17 07:29:12;;;;;;;19.87;12.40;;;4.90;99.90;;;;;;5092126;28;20494;-66
2021/03/17 07:31:42;;;;;;;17.23;14.67;;;4.90;99.90;;;;;;5092145;28;20442;-66
2021/03/17 07:34:21;;;;;;;20.23;14.50;;;5.10;99.90;;;;;;5091822;28;20495;-66
2021/03/17 07:36:50;;;;;;;19.80;13.30;;;5.10;99.90;;;;;;5091874;28;20469;-66
2021/03/17 07:39:19;;;;;;;15.53;12.43;;;5.20;99.90;;;;;;5091906;28;20434;-67
2021/03/17 07:41:47;;;;;;;15.60;12.20;;;5.30;99.90;;;;;;5091774;28;20525;-66
2021/03/17 07:44:16;;;;;;;13.73;11.40;;;5.30;99.90;;;;;;5091544;28;20445;-66
2021/03/17 07:46:46;;;;;;;12.57;11.20;;;5.40;99.90;;;;;;5091868;28;20466;-67
2021/03/17 07:49:12;;;;;;;15.07;11.83;;;5.30;99.90;;;;;;5091621;28;20470;-66
2021/03/17 07:51:50;;;;;;;15.70;10.70;;;5.30;99.90;;;;;;5091786;28;20789;-66
2021/03/17 07:54:38;;;;;;;16.70;13.17;;;5.30;99.90;;;;;;5090988;28;20496;-67
2021/03/17 07:57:06;;;;;;;16.97;11.20;;;5.40;99.90;;;;;;5085003;28;20466;-67
2021/03/17 07:59:34;;;;;;;11.63;9.10;;;5.50;99.90;;;;;;5091636;28;20811;-66
2021/03/17 08:02:02;;;;;;;13.03;10.53;;;5.40;99.90;;;;;;5091619;28;20447;-66
2021/03/17 08:04:29;;;;;;;13.67;10.43;;;5.40;99.90;;;;;;5091122;28;20442;-66
2021/03/17 08:06:56;;;;;;;11.20;9.57;;;5.40;99.90;;;;;;5091348;28;20527;-67
2021/03/17 08:09:23;;;;;;;15.17;10.00;;;5.30;99.90;;;;;;5091380;28;20470;-67
2021/03/17 08:11:50;;;;;;;11.23;10.03;;;5.40;99.90;;;;;;5091358;28;20446;-66
2021/03/17 08:14:18;;;;;;;10.97;8.87;;;5.40;99.90;;;;;;5091049;28;20449;-66
2021/03/17 08:16:44;;;;;;;9.90;8.20;;;5.50;99.90;;;;;;5091276;28;20462;-66
2021/03/17 08:19:30;;;;;;;10.33;8.10;;;5.60;99.90;;;;;;5091344;28;20438;-66
2021/03/17 08:21:57;;;;;;;12.53;8.40;;;5.80;99.90;;;;;;5091421;28;20449;-66
2021/03/17 08:24:44;;;;;;;9.93;6.03;;;5.80;99.90;;;;;;5091113;28;20442;-67
2021/03/17 08:27:24;;;;;;;9.20;7.73;;;5.90;99.90;;;;;;5091157;28;20469;-67
2021/03/17 08:30:07;;;;;;;9.13;8.07;;;6.10;99.90;;;;;;5091148;28;20951;-67
2021/03/17 08:32:56;;;;;;;9.50;8.70;;;6.30;99.90;;;;;;5088570;28;20812;-67
2021/03/17 08:35:24;;;;;;;10.13;8.97;;;6.50;99.90;;;;;;5090990;28;20430;-67
2021/03/17 08:37:52;;;;;;;8.90;8.20;;;6.70;99.90;;;;;;5091085;28;20511;-67
2021/03/17 08:40:50;;;;;;;10.93;9.83;;;6.70;99.90;;;;;;5091147;28;20468;-66
2021/03/17 08:43:47;;;;;;;12.67;10.20;;;6.80;99.90;;;;;;5090842;28;20441;-66
2021/03/17 08:46:16;;;;;;;11.03;10.23;;;7.10;99.90;;;;;;5084681;28;20470;-66
2021/03/17 08:49:00;;;;;;;12.30;11.40;;;7.10;99.90;;;;;;5089900;28;20448;-67
2021/03/17 08:52:03;;;;;;;14.30;13.40;;;6.70;99.90;;;;;;5091308;28;20200;-66
2021/03/17 08:54:53;;;;;;;12.87;11.80;;;6.70;99.90;;;;;;5090665;28;21020;-66
2021/03/17 08:57:20;;;;;;;13.50;12.53;;;6.90;99.90;;;;;;5090854;28;20462;-67
2021/03/17 08:59:48;;;;;;;11.67;11.07;;;6.80;99.90;;;;;;5090948;28;20450;-66
2021/03/17 09:02:42;;;;;;;11.40;10.73;;;6.70;99.90;;;;;;5090891;28;20453;-67
2021/03/17 09:05:18;;;;;;;10.93;10.43;;;6.90;99.90;;;;;;5090558;28;20816;-65
2021/03/17 09:08:01;;;;;;;11.30;10.80;;;7.40;99.90;;;;;;5093240;28;20461;-67
2021/03/17 09:10:43;;;;;;;12.30;11.80;;;7.80;99.90;;;;;;5094788;28;20477;-67
2021/03/17 09:13:10;;;;;;;13.03;12.30;;;8.00;99.90;;;;;;5094598;28;20438;-67
2021/03/17 09:15:47;;;;;;;14.43;13.67;;;8.40;99.90;;;;;;5094630;28;20442;-67
2021/03/17 09:18:14;;;;;;;15.47;14.57;;;8.80;99.90;;;;;;5094532;28;20814;-65
2021/03/17 09:20:43;;;;;;;14.53;14.03;;;8.80;99.90;;;;;;5094563;28;20434;-67
2021/03/17 09:23:15;;;;;;;14.97;14.37;;;8.60;99.90;;;;;;5094283;28;20442;-67
2021/03/17 09:25:45;;;;;;;16.53;15.73;;;8.00;99.90;;;;;;5094519;28;20812;-67
2021/03/17 09:28:18;;;;;;;15.07;14.47;;;7.50;99.90;;;;;;5094563;28;20450;-67
2021/03/17 09:30:48;;;;;;;14.53;14.03;;;7.40;99.90;;;;;;5094424;28;20534;-67
2021/03/17 09:33:17;;;;;;;15.93;15.20;;;7.30;99.90;;;;;;5094090;28;20454;-67
2021/03/17 09:35:49;;;;;;;17.60;16.40;;;7.40;99.90;;;;;;5094274;28;20454;-67
2021/03/17 09:38:18;;;;;;;15.90;15.10;;;7.60;99.90;;;;;;5094439;28;20939;-67
2021/03/17 09:40:49;;;;;;;16.17;15.40;;;7.80;99.90;;;;;;5094073;28;20449;-65
2021/03/17 09:43:31;;;;;;;18.53;16.93;;;7.60;99.90;;;;;;5093977;28;20924;-66
2021/03/17 09:45:58;;;;;;;17.20;16.30;;;7.40;99.90;;;;;;5093947;28;20796;-66
2021/03/17 09:48:25;;;;;;;16.73;15.77;;;7.30;99.90;;;;;;5094070;28;20438;-67
2021/03/17 09:50:57;;;;;;;16.23;15.43;;;7.20;99.90;;;;;;5093948;28;20482;-67
2021/03/17 09:53:23;;;;;;;15.20;14.50;;;7.30;99.90;;;;;;5093746;28;20812;-67
2021/03/17 09:55:50;;;;;;;16.80;15.70;;;7.10;99.90;;;;;;5093638;28;20812;-66
2021/03/17 09:58:17;;;;;;;16.23;14.83;;;7.00;99.90;;;;;;5093763;28;20450;-66
2021/03/17 10:00:47;;;;;;;12.17;11.57;;;6.80;99.90;;;;;;5093709;28;20437;-67
2021/03/17 10:03:14;;;;;;;15.00;14.50;;;6.50;99.90;;;;;;5093367;28;20443;-65
2021/03/17 10:05:41;;;;;;;15.60;14.90;;;6.60;99.90;;;;;;5093597;28;20437;-66
2021/03/17 10:08:07;;;;;;;15.60;14.90;;;6.80;99.90;;;;;;5093202;28;20958;-66
2021/03/17 10:10:37;;;;;;;15.20;14.60;;;6.90;99.90;;;;;;5093439;28;20479;-66
2021/03/17 10:13:05;;;;;;;15.90;15.10;;;6.90;99.90;;;;;;5093204;28;20453;-66
2021/03/17 10:15:31;;;;;;;15.90;15.20;;;7.00;99.90;;;;;;5093250;28;20454;-66
2021/03/17 10:17:58;;;;;;;16.40;15.40;;;7.00;99.90;;;;;;5092887;28;20461;-66
2021/03/17 10:20:27;;;;;;;15.37;14.57;;;7.10;99.90;;;;;;5093476;28;20446;-66
2021/03/17 10:22:57;;;;;;;15.20;14.40;;;7.40;99.90;;;;;;5093161;28;21008;-67
2021/03/17 10:25:26;;;;;;;15.70;14.73;;;7.70;99.90;;;;;;5093162;28;20450;-67
2021/03/17 10:27:53;;;;;;;16.43;15.53;;;7.60;99.90;;;;;;5093213;28;20458;-66
2021/03/17 10:30:27;;;;;;;15.97;15.17;;;7.50;99.90;;;;;;5092915;28;20477;-67
2021/03/17 10:32:55;;;;;;;14.57;14.17;;;7.40;99.90;;;;;;5093026;28;20787;-66
2021/03/17 10:35:23;;;;;;;14.67;14.07;;;7.00;99.90;;;;;;5092847;28;20468;-66
2021/03/17 10:37:50;;;;;;;15.10;14.50;;;7.00;99.90;;;;;;5093012;28;20454;-67
2021/03/17 10:40:19;;;;;;;15.30;14.70;;;7.00;99.90;;;;;;5093029;28;20441;-65
2021/03/17 10:42:47;;;;;;;16.13;15.03;;;7.30;99.90;;;;;;5092755;28;20870;-66
2021/03/17 10:45:16;;;;;;;15.90;15.20;;;7.70;99.90;;;;;;5092772;28;20430;-66
2021/03/17 10:47:46;;;;;;;15.13;14.63;;;7.80;99.90;;;;;;5093279;28;20462;-66
2021/03/17 10:50:16;;;;;;;16.10;15.40;;;8.30;99.90;;;;;;5092611;28;20568;-66
2021/03/17 10:52:44;;;;;;;16.03;15.43;;;8.70;99.90;;;;;;5092584;28;20443;-63
2021/03/17 10:55:13;;;;;;;15.67;15.03;;;9.10;99.90;;;;;;5092567;28;20445;-64
2021/03/17 10:57:40;;;;;;;16.60;15.60;;;9.60;99.90;;;;;;5092490;28;20523;-65
2021/03/17 11:00:15;;;;;;;17.10;16.20;;;9.90;99.90;;;;;;5092541;28;20431;-64
2021/03/17 11:02:43;;;;;;;16.90;16.20;;;10.40;99.70;;;;;;5092490;28;20445;-64
2021/03/17 11:05:15;;;;;;;16.83;16.13;;;10.70;97.60;;;;;;5092573;28;20442;-63
2021/03/17 11:08:09;;;;;;;18.53;17.53;;;11.10;96.40;;;;;;5092521;28;20462;-64
2021/03/17 11:10:55;;;;;;;17.53;16.73;;;10.50;94.70;;;;;;5092303;28;20484;-66
2021/03/17 11:13:30;;;;;;;18.47;17.67;;;11.10;93.60;;;;;;5092073;28;20449;-65
2021/03/17 11:15:59;;;;;;;19.70;18.80;;;11.60;91.10;;;;;;5092365;28;20453;-64
2021/03/17 11:18:28;;;;;;;19.00;18.30;;;12.50;87.60;;;;;;5092319;28;20439;-65
2021/03/17 11:20:57;;;;;;;19.40;18.50;;;12.20;80.60;;;;;;5092290;28;20774;-64
2021/03/17 11:23:26;;;;;;;19.77;18.97;;;12.20;79.40;;;;;;5091862;28;20445;-63
2021/03/17 11:25:54;;;;;;;19.07;18.40;;;11.80;74.40;;;;;;5092118;28;20450;-64
2021/03/17 11:28:22;;;;;;;20.50;19.70;;;11.20;72.60;;;;;;5092111;28;20488;-64
2021/03/17 11:30:51;;;;;;;22.33;21.43;;;11.30;74.40;;;;;;5091279;28;20874;-66
2021/03/17 11:33:18;;;;;;;19.83;19.13;;;11.20;75.00;;;;;;5091706;28;20865;-65
2021/03/17 11:35:45;;;;;;;19.83;19.03;;;10.80;72.00;;;;;;5091639;28;20978;-64
2021/03/17 11:38:12;;;;;;;21.17;20.03;;;11.50;70.70;;;;;;5091821;28;20984;-66
2021/03/17 11:40:38;;;;;;;19.60;18.87;;;11.40;66.10;;;;;;5092064;28;20435;-65
2021/03/17 11:43:06;;;;;;;19.83;18.90;;;11.80;64.70;;;;;;5092268;28;20798;-64
2021/03/17 11:45:33;;;;;;;19.63;18.93;;;11.90;61.50;;;;;;5091795;28;20822;-66
2021/03/17 11:47:59;;;;;;;20.23;19.33;;;11.50;59.90;;;;;;5091698;28;20474;-66
2021/03/17 11:50:25;;;;;;;19.77;19.07;;;10.80;60.00;;;;;;5091637;28;20484;-65
2021/03/17 11:52:52;;;;;;;19.40;18.57;;;9.60;60.00;;;;;;5091481;28;20446;-65
2021/03/17 11:55:20;;;;;;;19.07;18.30;;;9.20;62.10;;;;;;5091545;28;20480;-65
2021/03/17 11:57:47;;;;;;;18.53;17.87;;;8.80;66.40;;;;;;5091602;28;20458;-66
2021/03/17 12:00:14;;;;;;;19.00;18.00;;;8.70;69.70;;;;;;5091643;28;20438;-65
2021/03/17 12:02:41;;;;;;;19.27;18.40;;;8.70;74.10;;;;;;5091448;28;20492;-66
2021/03/17 12:05:08;;;;;;;19.97;18.80;;;9.20;76.20;;;;;;5091483;28;20808;-65
2021/03/17 12:07:34;;;;;;;19.97;19.07;;;9.80;74.90;;;;;;5091330;28;20462;-65
2021/03/17 12:10:01;;;;;;;19.50;18.80;;;9.70;67.10;;;;;;5091381;28;20501;-66
2021/03/17 12:12:28;;;;;;;20.80;19.80;;;9.80;66.00;;;;;;5091359;28;20450;-65
2021/03/17 12:14:54;;;;;;;20.87;20.03;;;12.20;64.10;;;;;;5091140;28;20443;-66
2021/03/17 12:17:20;;;;;;;20.90;20.10;;;16.40;56.30;;;;;;5091107;28;20522;-64
2021/03/17 12:19:46;;;;;;;21.40;20.60;;;17.80;48.20;;;;;;5091227;28;20449;-64
2021/03/17 12:22:12;;;;;;;20.90;20.20;;;20.40;43.60;;;;;;5091053;28;20850;-63
2021/03/17 12:24:38;;;;;;;21.33;20.53;;;19.50;40.50;;;;;;5091036;28;20495;-64
2021/03/17 12:27:06;;;;;;;22.40;21.50;;;20.50;38.40;;;;;;5091097;28;20485;-64
2021/03/17 12:29:32;;;;;;;21.73;20.80;;;20.70;37.90;;;;;;5091101;28;20442;-65
2021/03/17 12:31:59;;;;;;;23.27;22.07;;;18.40;37.60;;;;;;5091196;28;20796;-64
2021/03/17 12:34:25;;;;;;;23.63;22.63;;;16.30;40.30;;;;;;5091032;28;20447;-63
2021/03/17 12:36:51;;;;;;;23.63;22.43;;;14.70;42.90;;;;;;5091017;28;20474;-64
2021/03/17 12:39:17;;;;;;;23.47;22.30;;;13.70;45.50;;;;;;5090949;28;20453;-65
2021/03/17 12:41:45;;;;;;;23.63;22.30;;;12.50;47.30;;;;;;5093657;28;20847;-66
2021/03/17 12:44:12;;;;;;;24.47;22.73;;;11.30;49.20;;;;;;5095021;28;20446;-64
2021/03/17 12:46:38;;;;;;;23.47;22.17;;;10.00;51.20;;;;;;5095204;28;20469;-66
2021/03/17 12:49:04;;;;;;;22.03;20.93;;;10.00;52.90;;;;;;5095266;28;20450;-66
2021/03/17 12:51:31;;;;;;;21.07;20.17;;;9.80;54.10;;;;;;5095176;28;20489;-65
2021/03/17 12:53:57;;;;;;;21.17;20.37;;;10.00;53.30;;;;;;5094985;28;20438;-65
2021/03/17 12:56:25;;;;;;;20.10;19.40;;;10.20;53.20;;;;;;5094818;28;20457;-65